sensor_id;sensor_type;location;lat;lon;timestamp;P1;durP1;ratioP1;P2;durP2;ratioP2
39442;SDS011;25147;52.142;9.960;2023-04-03T00:00:30;5.37;;;1.60;;
39442;SDS011;25147;52.142;9.960;2023-04-03T00:02:58;3.70;;;1.70;;
39442;SDS011;25147;52.142;9.960;2023-04-03T00:05:24;3.33;;;1.77;;
39442;SDS011;25147;52.142;9.960;2023-04-03T00:07:51;5.87;;;1.97;;
39442;SDS011;25147;52.142;9.960;2023-04-03T00:10:18;6.67;;;1.87;;
39442;SDS011;25147;52.142;9.960;2023-04-03T00:12:47;4.17;;;2.10;;
39442;SDS011;25147;52.142;9.960;2023-04-03T00:15:14;5.33;;;2.30;;
39442;SDS011;25147;52.142;9.960;2023-04-03T00:17:40;7.90;;;2.33;;
39442;SDS011;25147;52.142;9.960;2023-04-03T00:20:08;5.70;;;1.83;;
39442;SDS011;25147;52.142;9.960;2023-04-03T00:22:35;3.20;;;1.83;;
39442;SDS011;25147;52.142;9.960;2023-04-03T00:25:02;4.43;;;2.03;;
39442;SDS011;25147;52.142;9.960;2023-04-03T00:27:29;6.03;;;2.00;;
39442;SDS011;25147;52.142;9.960;2023-04-03T00:29:57;4.40;;;2.00;;
39442;SDS011;25147;52.142;9.960;2023-04-03T00:32:24;4.43;;;1.60;;
39442;SDS011;25147;52.142;9.960;2023-04-03T00:34:51;6.83;;;1.90;;
39442;SDS011;25147;52.142;9.960;2023-04-03T00:37:18;5.30;;;1.90;;
39442;SDS011;25147;52.142;9.960;2023-04-03T00:39:45;5.83;;;2.00;;
39442;SDS011;25147;52.142;9.960;2023-04-03T00:42:11;5.80;;;2.20;;
39442;SDS011;25147;52.142;9.960;2023-04-03T00:47:56;5.43;;;2.03;;
39442;SDS011;25147;52.142;9.960;2023-04-03T00:50:25;4.23;;;1.87;;
39442;SDS011;25147;52.142;9.960;2023-04-03T00:52:53;5.50;;;1.83;;
39442;SDS011;25147;52.142;9.960;2023-04-03T00:55:21;7.90;;;2.10;;
39442;SDS011;25147;52.142;9.960;2023-04-03T00:57:48;4.47;;;1.80;;
39442;SDS011;25147;52.142;9.960;2023-04-03T01:00:16;6.27;;;1.77;;
39442;SDS011;25147;52.142;9.960;2023-04-03T01:02:47;3.90;;;1.50;;
39442;SDS011;25147;52.142;9.960;2023-04-03T01:05:16;7.87;;;1.87;;
39442;SDS011;25147;52.142;9.960;2023-04-03T01:07:43;5.30;;;1.80;;
39442;SDS011;25147;52.142;9.960;2023-04-03T01:10:12;6.70;;;1.70;;
39442;SDS011;25147;52.142;9.960;2023-04-03T01:12:42;4.57;;;1.83;;
39442;SDS011;25147;52.142;9.960;2023-04-03T01:15:11;4.67;;;1.70;;
39442;SDS011;25147;52.142;9.960;2023-04-03T01:17:40;5.67;;;1.93;;
39442;SDS011;25147;52.142;9.960;2023-04-03T01:20:28;3.80;;;1.77;;
39442;SDS011;25147;52.142;9.960;2023-04-03T01:23:12;6.47;;;1.67;;
39442;SDS011;25147;52.142;9.960;2023-04-03T01:25:58;7.67;;;1.70;;
39442;SDS011;25147;52.142;9.960;2023-04-03T01:28:32;4.77;;;1.70;;
39442;SDS011;25147;52.142;9.960;2023-04-03T01:31:02;3.10;;;1.67;;
39442;SDS011;25147;52.142;9.960;2023-04-03T01:33:39;8.00;;;1.77;;
39442;SDS011;25147;52.142;9.960;2023-04-03T01:36:06;5.10;;;1.77;;
39442;SDS011;25147;52.142;9.960;2023-04-03T01:38:36;5.57;;;1.97;;
39442;SDS011;25147;52.142;9.960;2023-04-03T01:41:04;4.93;;;1.90;;
39442;SDS011;25147;52.142;9.960;2023-04-03T01:43:30;5.33;;;1.50;;
39442;SDS011;25147;52.142;9.960;2023-04-03T01:45:57;4.30;;;2.03;;
39442;SDS011;25147;52.142;9.960;2023-04-03T01:48:24;5.03;;;1.67;;
39442;SDS011;25147;52.142;9.960;2023-04-03T01:50:53;2.97;;;1.53;;
39442;SDS011;25147;52.142;9.960;2023-04-03T01:53:21;6.43;;;1.73;;
39442;SDS011;25147;52.142;9.960;2023-04-03T01:55:48;5.60;;;1.73;;
39442;SDS011;25147;52.142;9.960;2023-04-03T01:58:15;5.67;;;1.80;;
39442;SDS011;25147;52.142;9.960;2023-04-03T02:00:42;4.47;;;1.63;;
39442;SDS011;25147;52.142;9.960;2023-04-03T02:03:08;5.73;;;2.20;;
39442;SDS011;25147;52.142;9.960;2023-04-03T02:05:35;5.47;;;1.80;;
39442;SDS011;25147;52.142;9.960;2023-04-03T02:08:03;7.50;;;2.10;;
39442;SDS011;25147;52.142;9.960;2023-04-03T02:10:31;6.90;;;1.77;;
39442;SDS011;25147;52.142;9.960;2023-04-03T02:12:58;3.47;;;1.77;;
39442;SDS011;25147;52.142;9.960;2023-04-03T02:15:24;3.37;;;1.93;;
39442;SDS011;25147;52.142;9.960;2023-04-03T02:17:51;4.53;;;1.70;;
39442;SDS011;25147;52.142;9.960;2023-04-03T02:20:18;7.27;;;1.77;;
39442;SDS011;25147;52.142;9.960;2023-04-03T02:22:46;3.13;;;1.50;;
39442;SDS011;25147;52.142;9.960;2023-04-03T02:25:14;7.57;;;1.67;;
39442;SDS011;25147;52.142;9.960;2023-04-03T02:27:42;5.57;;;1.90;;
39442;SDS011;25147;52.142;9.960;2023-04-03T02:30:09;6.13;;;1.73;;
39442;SDS011;25147;52.142;9.960;2023-04-03T02:32:37;4.23;;;1.60;;
39442;SDS011;25147;52.142;9.960;2023-04-03T02:35:06;4.77;;;2.20;;
39442;SDS011;25147;52.142;9.960;2023-04-03T02:37:33;4.57;;;1.67;;
39442;SDS011;25147;52.142;9.960;2023-04-03T02:40:00;6.60;;;1.90;;
39442;SDS011;25147;52.142;9.960;2023-04-03T02:42:28;5.07;;;1.93;;
39442;SDS011;25147;52.142;9.960;2023-04-03T02:44:55;3.77;;;1.70;;
39442;SDS011;25147;52.142;9.960;2023-04-03T02:47:22;6.57;;;2.17;;
39442;SDS011;25147;52.142;9.960;2023-04-03T02:49:48;5.27;;;1.80;;
39442;SDS011;25147;52.142;9.960;2023-04-03T02:52:15;5.63;;;1.80;;
39442;SDS011;25147;52.142;9.960;2023-04-03T02:54:42;4.37;;;1.40;;
39442;SDS011;25147;52.142;9.960;2023-04-03T02:57:09;6.23;;;1.70;;
39442;SDS011;25147;52.142;9.960;2023-04-03T02:59:37;3.43;;;1.83;;
39442;SDS011;25147;52.142;9.960;2023-04-03T03:02:05;3.80;;;1.90;;
39442;SDS011;25147;52.142;9.960;2023-04-03T03:04:33;7.77;;;1.77;;
39442;SDS011;25147;52.142;9.960;2023-04-03T03:07:00;5.83;;;1.80;;
39442;SDS011;25147;52.142;9.960;2023-04-03T03:09:29;6.40;;;2.27;;
39442;SDS011;25147;52.142;9.960;2023-04-03T03:11:56;8.03;;;2.00;;
39442;SDS011;25147;52.142;9.960;2023-04-03T03:14:23;8.57;;;2.03;;
39442;SDS011;25147;52.142;9.960;2023-04-03T03:16:51;5.03;;;1.77;;
39442;SDS011;25147;52.142;9.960;2023-04-03T03:19:18;5.47;;;2.00;;
39442;SDS011;25147;52.142;9.960;2023-04-03T03:21:45;3.83;;;2.40;;
39442;SDS011;25147;52.142;9.960;2023-04-03T03:24:11;4.40;;;2.00;;
39442;SDS011;25147;52.142;9.960;2023-04-03T03:26:38;5.67;;;2.23;;
39442;SDS011;25147;52.142;9.960;2023-04-03T03:29:05;7.30;;;2.07;;
39442;SDS011;25147;52.142;9.960;2023-04-03T03:31:32;4.97;;;1.83;;
39442;SDS011;25147;52.142;9.960;2023-04-03T03:34:00;6.73;;;1.90;;
39442;SDS011;25147;52.142;9.960;2023-04-03T03:36:27;7.70;;;2.23;;
39442;SDS011;25147;52.142;9.960;2023-04-03T03:38:54;4.40;;;1.80;;
39442;SDS011;25147;52.142;9.960;2023-04-03T03:41:20;6.60;;;1.60;;
39442;SDS011;25147;52.142;9.960;2023-04-03T03:43:47;6.27;;;2.17;;
39442;SDS011;25147;52.142;9.960;2023-04-03T03:46:14;4.40;;;2.20;;
39442;SDS011;25147;52.142;9.960;2023-04-03T03:48:40;6.57;;;2.50;;
39442;SDS011;25147;52.142;9.960;2023-04-03T03:51:09;6.93;;;2.07;;
39442;SDS011;25147;52.142;9.960;2023-04-03T03:53:39;5.83;;;1.93;;
39442;SDS011;25147;52.142;9.960;2023-04-03T03:56:05;3.60;;;1.53;;
39442;SDS011;25147;52.142;9.960;2023-04-03T03:58:33;3.70;;;1.80;;
39442;SDS011;25147;52.142;9.960;2023-04-03T04:01:00;3.70;;;1.90;;
39442;SDS011;25147;52.142;9.960;2023-04-03T04:03:27;5.90;;;1.70;;
39442;SDS011;25147;52.142;9.960;2023-04-03T04:05:54;5.17;;;2.03;;
39442;SDS011;25147;52.142;9.960;2023-04-03T04:08:22;6.03;;;2.10;;
39442;SDS011;25147;52.142;9.960;2023-04-03T04:10:50;4.67;;;2.13;;
39442;SDS011;25147;52.142;9.960;2023-04-03T04:13:16;7.47;;;1.77;;
39442;SDS011;25147;52.142;9.960;2023-04-03T04:15:43;6.80;;;1.80;;
39442;SDS011;25147;52.142;9.960;2023-04-03T04:18:10;7.57;;;2.20;;
39442;SDS011;25147;52.142;9.960;2023-04-03T04:20:37;5.77;;;1.83;;
39442;SDS011;25147;52.142;9.960;2023-04-03T04:23:03;3.73;;;1.87;;
39442;SDS011;25147;52.142;9.960;2023-04-03T04:25:32;3.50;;;1.57;;
39442;SDS011;25147;52.142;9.960;2023-04-03T04:27:58;3.87;;;1.70;;
39442;SDS011;25147;52.142;9.960;2023-04-03T04:30:25;6.53;;;2.10;;
39442;SDS011;25147;52.142;9.960;2023-04-03T04:32:52;7.07;;;2.23;;
39442;SDS011;25147;52.142;9.960;2023-04-03T04:35:19;7.50;;;2.20;;
39442;SDS011;25147;52.142;9.960;2023-04-03T04:37:46;4.70;;;1.60;;
39442;SDS011;25147;52.142;9.960;2023-04-03T04:40:13;8.10;;;1.90;;
39442;SDS011;25147;52.142;9.960;2023-04-03T04:42:41;4.93;;;1.80;;
39442;SDS011;25147;52.142;9.960;2023-04-03T04:45:09;6.77;;;2.00;;
39442;SDS011;25147;52.142;9.960;2023-04-03T04:47:36;6.13;;;1.50;;
39442;SDS011;25147;52.142;9.960;2023-04-03T04:50:03;3.93;;;1.73;;
39442;SDS011;25147;52.142;9.960;2023-04-03T04:52:31;5.83;;;1.83;;
39442;SDS011;25147;52.142;9.960;2023-04-03T04:54:57;5.97;;;2.10;;
39442;SDS011;25147;52.142;9.960;2023-04-03T04:57:24;5.37;;;1.50;;
39442;SDS011;25147;52.142;9.960;2023-04-03T04:59:53;6.60;;;2.13;;
39442;SDS011;25147;52.142;9.960;2023-04-03T05:02:20;6.80;;;2.40;;
39442;SDS011;25147;52.142;9.960;2023-04-03T05:04:47;5.80;;;1.57;;
39442;SDS011;25147;52.142;9.960;2023-04-03T05:07:15;5.10;;;2.10;;
39442;SDS011;25147;52.142;9.960;2023-04-03T05:09:42;5.90;;;2.00;;
39442;SDS011;25147;52.142;9.960;2023-04-03T05:12:09;7.20;;;2.20;;
39442;SDS011;25147;52.142;9.960;2023-04-03T05:14:35;4.47;;;2.10;;
39442;SDS011;25147;52.142;9.960;2023-04-03T05:17:04;6.40;;;2.30;;
39442;SDS011;25147;52.142;9.960;2023-04-03T05:19:30;5.17;;;1.77;;
39442;SDS011;25147;52.142;9.960;2023-04-03T05:21:57;8.63;;;2.17;;
39442;SDS011;25147;52.142;9.960;2023-04-03T05:24:24;6.03;;;1.67;;
39442;SDS011;25147;52.142;9.960;2023-04-03T05:26:51;4.33;;;2.30;;
39442;SDS011;25147;52.142;9.960;2023-04-03T05:29:18;4.07;;;1.80;;
39442;SDS011;25147;52.142;9.960;2023-04-03T05:31:45;5.57;;;2.00;;
39442;SDS011;25147;52.142;9.960;2023-04-03T05:34:13;3.43;;;2.30;;
39442;SDS011;25147;52.142;9.960;2023-04-03T05:36:40;4.77;;;2.20;;
39442;SDS011;25147;52.142;9.960;2023-04-03T05:39:07;7.57;;;2.50;;
39442;SDS011;25147;52.142;9.960;2023-04-03T05:41:34;6.10;;;2.23;;
39442;SDS011;25147;52.142;9.960;2023-04-03T05:44:01;8.10;;;2.27;;
39442;SDS011;25147;52.142;9.960;2023-04-03T05:46:28;3.53;;;1.83;;
39442;SDS011;25147;52.142;9.960;2023-04-03T05:48:55;8.33;;;2.30;;
39442;SDS011;25147;52.142;9.960;2023-04-03T05:51:24;5.50;;;1.90;;
39442;SDS011;25147;52.142;9.960;2023-04-03T05:53:56;5.13;;;2.23;;
39442;SDS011;25147;52.142;9.960;2023-04-03T05:56:29;5.40;;;1.97;;
39442;SDS011;25147;52.142;9.960;2023-04-03T05:58:56;7.87;;;2.10;;
39442;SDS011;25147;52.142;9.960;2023-04-03T06:01:23;4.47;;;2.40;;
39442;SDS011;25147;52.142;9.960;2023-04-03T06:03:49;4.87;;;2.10;;
39442;SDS011;25147;52.142;9.960;2023-04-03T06:06:16;5.33;;;1.70;;
39442;SDS011;25147;52.142;9.960;2023-04-03T06:08:44;7.27;;;1.87;;
39442;SDS011;25147;52.142;9.960;2023-04-03T06:11:12;8.37;;;2.80;;
39442;SDS011;25147;52.142;9.960;2023-04-03T06:13:39;5.13;;;1.93;;
39442;SDS011;25147;52.142;9.960;2023-04-03T06:16:06;5.80;;;1.83;;
39442;SDS011;25147;52.142;9.960;2023-04-03T06:18:34;5.17;;;2.00;;
39442;SDS011;25147;52.142;9.960;2023-04-03T06:21:01;6.33;;;1.93;;
39442;SDS011;25147;52.142;9.960;2023-04-03T06:23:28;4.13;;;1.97;;
39442;SDS011;25147;52.142;9.960;2023-04-03T06:25:57;7.23;;;1.80;;
39442;SDS011;25147;52.142;9.960;2023-04-03T06:28:25;3.33;;;1.70;;
39442;SDS011;25147;52.142;9.960;2023-04-03T06:30:51;5.00;;;2.10;;
39442;SDS011;25147;52.142;9.960;2023-04-03T06:33:18;6.87;;;1.87;;
39442;SDS011;25147;52.142;9.960;2023-04-03T06:35:45;5.73;;;2.83;;
39442;SDS011;25147;52.142;9.960;2023-04-03T06:38:12;7.57;;;2.23;;
39442;SDS011;25147;52.142;9.960;2023-04-03T06:40:38;6.90;;;2.13;;
39442;SDS011;25147;52.142;9.960;2023-04-03T06:43:07;8.40;;;2.13;;
39442;SDS011;25147;52.142;9.960;2023-04-03T06:45:33;6.40;;;2.23;;
39442;SDS011;25147;52.142;9.960;2023-04-03T06:48:01;4.73;;;1.80;;
39442;SDS011;25147;52.142;9.960;2023-04-03T06:50:28;4.43;;;1.90;;
39442;SDS011;25147;52.142;9.960;2023-04-03T06:52:55;5.60;;;1.97;;
39442;SDS011;25147;52.142;9.960;2023-04-03T06:55:22;6.40;;;2.10;;
39442;SDS011;25147;52.142;9.960;2023-04-03T06:57:49;4.43;;;2.07;;
39442;SDS011;25147;52.142;9.960;2023-04-03T07:00:18;4.50;;;1.90;;
39442;SDS011;25147;52.142;9.960;2023-04-03T07:02:45;5.60;;;1.70;;
39442;SDS011;25147;52.142;9.960;2023-04-03T07:05:12;4.90;;;1.80;;
39442;SDS011;25147;52.142;9.960;2023-04-03T07:07:39;5.97;;;1.80;;
39442;SDS011;25147;52.142;9.960;2023-04-03T07:10:06;6.53;;;2.53;;
39442;SDS011;25147;52.142;9.960;2023-04-03T07:12:34;7.60;;;2.00;;
39442;SDS011;25147;52.142;9.960;2023-04-03T07:15:01;4.10;;;1.97;;
39442;SDS011;25147;52.142;9.960;2023-04-03T07:17:30;8.70;;;2.17;;
39442;SDS011;25147;52.142;9.960;2023-04-03T07:19:57;7.13;;;1.87;;
39442;SDS011;25147;52.142;9.960;2023-04-03T07:22:24;6.03;;;2.10;;
39442;SDS011;25147;52.142;9.960;2023-04-03T07:24:51;6.13;;;2.20;;
39442;SDS011;25147;52.142;9.960;2023-04-03T07:27:18;6.03;;;1.90;;
39442;SDS011;25147;52.142;9.960;2023-04-03T07:29:45;6.60;;;2.40;;
39442;SDS011;25147;52.142;9.960;2023-04-03T07:32:13;6.67;;;2.10;;
39442;SDS011;25147;52.142;9.960;2023-04-03T07:34:43;5.33;;;1.80;;
39442;SDS011;25147;52.142;9.960;2023-04-03T07:37:11;6.50;;;2.20;;
39442;SDS011;25147;52.142;9.960;2023-04-03T07:39:38;8.30;;;2.03;;
39442;SDS011;25147;52.142;9.960;2023-04-03T07:42:05;7.17;;;2.20;;
39442;SDS011;25147;52.142;9.960;2023-04-03T07:44:35;7.63;;;2.70;;
39442;SDS011;25147;52.142;9.960;2023-04-03T07:47:03;7.30;;;2.07;;
39442;SDS011;25147;52.142;9.960;2023-04-03T07:49:30;4.47;;;2.03;;
39442;SDS011;25147;52.142;9.960;2023-04-03T07:51:59;5.47;;;2.00;;
39442;SDS011;25147;52.142;9.960;2023-04-03T07:54:26;3.80;;;1.80;;
39442;SDS011;25147;52.142;9.960;2023-04-03T07:56:54;4.07;;;2.03;;
39442;SDS011;25147;52.142;9.960;2023-04-03T07:59:22;6.33;;;2.13;;
39442;SDS011;25147;52.142;9.960;2023-04-03T08:01:49;7.87;;;2.10;;
39442;SDS011;25147;52.142;9.960;2023-04-03T08:04:16;6.00;;;1.80;;
39442;SDS011;25147;52.142;9.960;2023-04-03T08:06:44;5.93;;;1.83;;
39442;SDS011;25147;52.142;9.960;2023-04-03T08:09:19;6.07;;;1.80;;
39442;SDS011;25147;52.142;9.960;2023-04-03T08:11:46;6.77;;;1.97;;
39442;SDS011;25147;52.142;9.960;2023-04-03T08:14:13;8.93;;;2.17;;
39442;SDS011;25147;52.142;9.960;2023-04-03T08:16:48;6.77;;;2.13;;
39442;SDS011;25147;52.142;9.960;2023-04-03T08:19:24;3.47;;;1.60;;
39442;SDS011;25147;52.142;9.960;2023-04-03T08:21:51;7.73;;;1.83;;
39442;SDS011;25147;52.142;9.960;2023-04-03T08:24:20;5.53;;;2.00;;
39442;SDS011;25147;52.142;9.960;2023-04-03T08:26:47;8.07;;;2.30;;
39442;SDS011;25147;52.142;9.960;2023-04-03T08:29:15;5.70;;;2.03;;
39442;SDS011;25147;52.142;9.960;2023-04-03T08:31:42;4.87;;;2.00;;
39442;SDS011;25147;52.142;9.960;2023-04-03T08:34:10;7.23;;;2.63;;
39442;SDS011;25147;52.142;9.960;2023-04-03T08:36:37;6.47;;;2.13;;
39442;SDS011;25147;52.142;9.960;2023-04-03T08:39:04;6.60;;;2.33;;
39442;SDS011;25147;52.142;9.960;2023-04-03T08:41:41;5.17;;;2.13;;
39442;SDS011;25147;52.142;9.960;2023-04-03T08:44:15;4.87;;;2.30;;
39442;SDS011;25147;52.142;9.960;2023-04-03T08:46:55;6.07;;;2.53;;
39442;SDS011;25147;52.142;9.960;2023-04-03T08:49:30;4.17;;;2.17;;
39442;SDS011;25147;52.142;9.960;2023-04-03T08:52:00;11.40;;;2.30;;
39442;SDS011;25147;52.142;9.960;2023-04-03T08:54:32;4.57;;;2.00;;
39442;SDS011;25147;52.142;9.960;2023-04-03T08:57:04;4.87;;;1.57;;
39442;SDS011;25147;52.142;9.960;2023-04-03T08:59:33;5.60;;;1.63;;
39442;SDS011;25147;52.142;9.960;2023-04-03T09:02:04;8.20;;;1.90;;
39442;SDS011;25147;52.142;9.960;2023-04-03T09:04:50;7.23;;;1.37;;
39442;SDS011;25147;52.142;9.960;2023-04-03T09:07:20;4.13;;;1.43;;
39442;SDS011;25147;52.142;9.960;2023-04-03T09:09:53;4.13;;;1.60;;
39442;SDS011;25147;52.142;9.960;2023-04-03T09:12:26;3.40;;;1.33;;
39442;SDS011;25147;52.142;9.960;2023-04-03T09:15:02;3.70;;;1.67;;
39442;SDS011;25147;52.142;9.960;2023-04-03T09:17:41;4.83;;;1.53;;
39442;SDS011;25147;52.142;9.960;2023-04-03T09:20:17;1.70;;;0.90;;
39442;SDS011;25147;52.142;9.960;2023-04-03T09:22:49;4.07;;;1.50;;
39442;SDS011;25147;52.142;9.960;2023-04-03T09:25:18;4.77;;;1.30;;
39442;SDS011;25147;52.142;9.960;2023-04-03T09:27:50;4.80;;;1.33;;
39442;SDS011;25147;52.142;9.960;2023-04-03T09:30:19;2.97;;;1.20;;
39442;SDS011;25147;52.142;9.960;2023-04-03T09:32:49;4.20;;;1.33;;
39442;SDS011;25147;52.142;9.960;2023-04-03T09:35:21;2.83;;;1.47;;
39442;SDS011;25147;52.142;9.960;2023-04-03T09:37:51;3.13;;;1.57;;
39442;SDS011;25147;52.142;9.960;2023-04-03T09:40:29;3.97;;;1.30;;
39442;SDS011;25147;52.142;9.960;2023-04-03T09:46:18;3.03;;;1.40;;
39442;SDS011;25147;52.142;9.960;2023-04-03T09:49:02;2.33;;;1.30;;
39442;SDS011;25147;52.142;9.960;2023-04-03T09:51:33;3.23;;;1.10;;
39442;SDS011;25147;52.142;9.960;2023-04-03T09:54:01;5.50;;;1.30;;
39442;SDS011;25147;52.142;9.960;2023-04-03T09:56:53;5.83;;;1.33;;
39442;SDS011;25147;52.142;9.960;2023-04-03T09:59:25;5.43;;;1.27;;
39442;SDS011;25147;52.142;9.960;2023-04-03T10:01:57;1.70;;;1.03;;
39442;SDS011;25147;52.142;9.960;2023-04-03T10:04:37;2.97;;;0.90;;
39442;SDS011;25147;52.142;9.960;2023-04-03T10:07:31;3.83;;;1.80;;
39442;SDS011;25147;52.142;9.960;2023-04-03T10:10:17;2.60;;;1.33;;
39442;SDS011;25147;52.142;9.960;2023-04-03T10:12:48;4.00;;;1.27;;
39442;SDS011;25147;52.142;9.960;2023-04-03T10:15:16;4.30;;;1.30;;
39442;SDS011;25147;52.142;9.960;2023-04-03T10:17:50;4.47;;;1.47;;
39442;SDS011;25147;52.142;9.960;2023-04-03T10:20:29;4.10;;;1.10;;
39442;SDS011;25147;52.142;9.960;2023-04-03T10:23:03;3.43;;;1.13;;
39442;SDS011;25147;52.142;9.960;2023-04-03T10:25:43;2.27;;;1.10;;
39442;SDS011;25147;52.142;9.960;2023-04-03T10:28:22;5.20;;;1.30;;
39442;SDS011;25147;52.142;9.960;2023-04-03T10:31:02;3.70;;;1.10;;
39442;SDS011;25147;52.142;9.960;2023-04-03T10:33:39;2.97;;;1.10;;
39442;SDS011;25147;52.142;9.960;2023-04-03T10:36:19;3.93;;;1.00;;
39442;SDS011;25147;52.142;9.960;2023-04-03T10:38:57;3.40;;;1.37;;
39442;SDS011;25147;52.142;9.960;2023-04-03T10:41:39;1.80;;;0.90;;
39442;SDS011;25147;52.142;9.960;2023-04-03T10:44:20;4.23;;;1.10;;
39442;SDS011;25147;52.142;9.960;2023-04-03T10:47:00;5.63;;;1.27;;
39442;SDS011;25147;52.142;9.960;2023-04-03T10:49:39;3.47;;;1.27;;
39442;SDS011;25147;52.142;9.960;2023-04-03T10:52:19;1.53;;;0.93;;
39442;SDS011;25147;52.142;9.960;2023-04-03T10:54:54;5.80;;;1.53;;
39442;SDS011;25147;52.142;9.960;2023-04-03T10:57:27;9.20;;;1.40;;
39442;SDS011;25147;52.142;9.960;2023-04-03T10:59:56;2.00;;;1.30;;
39442;SDS011;25147;52.142;9.960;2023-04-03T11:02:29;2.30;;;1.10;;
39442;SDS011;25147;52.142;9.960;2023-04-03T11:04:59;2.40;;;1.10;;
39442;SDS011;25147;52.142;9.960;2023-04-03T11:07:32;3.60;;;1.15;;
39442;SDS011;25147;52.142;9.960;2023-04-03T11:10:05;3.17;;;1.00;;
39442;SDS011;25147;52.142;9.960;2023-04-03T11:12:41;1.80;;;1.13;;
39442;SDS011;25147;52.142;9.960;2023-04-03T11:15:11;5.40;;;1.40;;
39442;SDS011;25147;52.142;9.960;2023-04-03T11:17:43;2.20;;;1.33;;
39442;SDS011;25147;52.142;9.960;2023-04-03T11:20:17;2.67;;;1.03;;
39442;SDS011;25147;52.142;9.960;2023-04-03T11:22:47;1.47;;;1.17;;
39442;SDS011;25147;52.142;9.960;2023-04-03T11:25:18;1.88;;;1.20;;
39442;SDS011;25147;52.142;9.960;2023-04-03T11:27:48;1.37;;;0.87;;
39442;SDS011;25147;52.142;9.960;2023-04-03T11:30:22;2.03;;;1.13;;
39442;SDS011;25147;52.142;9.960;2023-04-03T11:33:00;5.40;;;1.20;;
39442;SDS011;25147;52.142;9.960;2023-04-03T11:35:37;2.67;;;1.30;;
39442;SDS011;25147;52.142;9.960;2023-04-03T11:38:10;3.43;;;1.50;;
39442;SDS011;25147;52.142;9.960;2023-04-03T11:40:45;1.97;;;1.20;;
39442;SDS011;25147;52.142;9.960;2023-04-03T11:43:20;3.50;;;1.20;;
39442;SDS011;25147;52.142;9.960;2023-04-03T11:45:52;2.78;;;1.00;;
39442;SDS011;25147;52.142;9.960;2023-04-03T11:54:34;4.07;;;1.20;;
39442;SDS011;25147;52.142;9.960;2023-04-03T12:03:33;2.35;;;1.00;;
39442;SDS011;25147;52.142;9.960;2023-04-03T12:09:27;3.83;;;0.98;;
39442;SDS011;25147;52.142;9.960;2023-04-03T12:12:00;1.70;;;1.20;;
39442;SDS011;25147;52.142;9.960;2023-04-03T12:14:47;3.35;;;0.95;;
39442;SDS011;25147;52.142;9.960;2023-04-03T12:17:19;3.08;;;1.40;;
39442;SDS011;25147;52.142;9.960;2023-04-03T12:19:49;1.83;;;0.93;;
39442;SDS011;25147;52.142;9.960;2023-04-03T12:22:17;2.00;;;0.90;;
39442;SDS011;25147;52.142;9.960;2023-04-03T12:24:48;2.67;;;1.30;;
39442;SDS011;25147;52.142;9.960;2023-04-03T12:27:21;1.90;;;1.20;;
39442;SDS011;25147;52.142;9.960;2023-04-03T12:29:53;3.92;;;1.30;;
39442;SDS011;25147;52.142;9.960;2023-04-03T12:32:26;3.00;;;1.23;;
39442;SDS011;25147;52.142;9.960;2023-04-03T12:35:05;2.90;;;1.20;;
39442;SDS011;25147;52.142;9.960;2023-04-03T12:37:48;5.53;;;1.55;;
39442;SDS011;25147;52.142;9.960;2023-04-03T12:40:34;3.03;;;1.13;;
39442;SDS011;25147;52.142;9.960;2023-04-03T12:43:22;2.78;;;1.10;;
39442;SDS011;25147;52.142;9.960;2023-04-03T12:46:14;1.97;;;0.87;;
39442;SDS011;25147;52.142;9.960;2023-04-03T12:48:48;3.20;;;1.10;;
39442;SDS011;25147;52.142;9.960;2023-04-03T12:51:19;3.92;;;1.35;;
39442;SDS011;25147;52.142;9.960;2023-04-03T12:53:52;2.90;;;1.47;;
39442;SDS011;25147;52.142;9.960;2023-04-03T12:56:31;2.05;;;1.10;;
39442;SDS011;25147;52.142;9.960;2023-04-03T12:59:13;1.80;;;1.02;;
39442;SDS011;25147;52.142;9.960;2023-04-03T13:04:34;3.63;;;1.15;;
39442;SDS011;25147;52.142;9.960;2023-04-03T13:07:17;4.45;;;1.20;;
39442;SDS011;25147;52.142;9.960;2023-04-03T13:09:57;5.40;;;1.10;;
39442;SDS011;25147;52.142;9.960;2023-04-03T13:12:28;3.30;;;1.40;;
39442;SDS011;25147;52.142;9.960;2023-04-03T13:14:57;3.67;;;1.33;;
39442;SDS011;25147;52.142;9.960;2023-04-03T13:17:27;2.37;;;1.50;;
39442;SDS011;25147;52.142;9.960;2023-04-03T13:19:54;1.90;;;1.30;;
39442;SDS011;25147;52.142;9.960;2023-04-03T13:22:24;3.30;;;1.10;;
39442;SDS011;25147;52.142;9.960;2023-04-03T13:24:55;7.83;;;1.40;;
39442;SDS011;25147;52.142;9.960;2023-04-03T13:27:27;4.50;;;1.13;;
39442;SDS011;25147;52.142;9.960;2023-04-03T13:29:58;3.50;;;1.40;;
39442;SDS011;25147;52.142;9.960;2023-04-03T13:32:27;1.67;;;1.10;;
39442;SDS011;25147;52.142;9.960;2023-04-03T13:34:56;2.03;;;1.03;;
39442;SDS011;25147;52.142;9.960;2023-04-03T13:37:24;2.37;;;1.20;;
39442;SDS011;25147;52.142;9.960;2023-04-03T13:39:57;4.20;;;1.20;;
39442;SDS011;25147;52.142;9.960;2023-04-03T13:42:29;1.50;;;1.10;;
39442;SDS011;25147;52.142;9.960;2023-04-03T13:47:46;2.03;;;1.17;;
39442;SDS011;25147;52.142;9.960;2023-04-03T13:50:19;2.00;;;1.20;;
39442;SDS011;25147;52.142;9.960;2023-04-03T13:52:52;6.63;;;1.27;;
39442;SDS011;25147;52.142;9.960;2023-04-03T13:55:22;2.87;;;1.30;;
39442;SDS011;25147;52.142;9.960;2023-04-03T13:57:53;2.20;;;1.10;;
39442;SDS011;25147;52.142;9.960;2023-04-03T14:00:28;2.53;;;1.02;;
39442;SDS011;25147;52.142;9.960;2023-04-03T14:02:59;2.03;;;1.10;;
39442;SDS011;25147;52.142;9.960;2023-04-03T14:05:26;2.72;;;1.15;;
39442;SDS011;25147;52.142;9.960;2023-04-03T14:07:53;1.92;;;0.90;;
39442;SDS011;25147;52.142;9.960;2023-04-03T14:10:22;2.63;;;1.20;;
39442;SDS011;25147;52.142;9.960;2023-04-03T14:12:50;1.75;;;1.02;;
39442;SDS011;25147;52.142;9.960;2023-04-03T14:15:23;1.88;;;0.90;;
39442;SDS011;25147;52.142;9.960;2023-04-03T14:17:55;2.47;;;1.17;;
39442;SDS011;25147;52.142;9.960;2023-04-03T14:20:23;2.65;;;1.55;;
39442;SDS011;25147;52.142;9.960;2023-04-03T14:22:52;3.30;;;1.00;;
39442;SDS011;25147;52.142;9.960;2023-04-03T14:25:20;1.67;;;1.23;;
39442;SDS011;25147;52.142;9.960;2023-04-03T14:27:50;3.30;;;1.40;;
39442;SDS011;25147;52.142;9.960;2023-04-03T14:30:22;2.08;;;1.20;;
39442;SDS011;25147;52.142;9.960;2023-04-03T14:32:51;2.55;;;1.15;;
39442;SDS011;25147;52.142;9.960;2023-04-03T14:35:34;2.85;;;1.10;;
39442;SDS011;25147;52.142;9.960;2023-04-03T14:38:05;3.22;;;1.38;;
39442;SDS011;25147;52.142;9.960;2023-04-03T14:40:40;2.90;;;1.30;;
39442;SDS011;25147;52.142;9.960;2023-04-03T14:43:09;1.23;;;1.00;;
39442;SDS011;25147;52.142;9.960;2023-04-03T14:45:38;1.65;;;1.10;;
39442;SDS011;25147;52.142;9.960;2023-04-03T14:48:09;3.15;;;1.10;;
39442;SDS011;25147;52.142;9.960;2023-04-03T14:50:43;1.63;;;1.10;;
39442;SDS011;25147;52.142;9.960;2023-04-03T14:53:10;2.47;;;1.00;;
39442;SDS011;25147;52.142;9.960;2023-04-03T14:55:40;2.20;;;1.20;;
39442;SDS011;25147;52.142;9.960;2023-04-03T14:58:23;2.10;;;1.20;;
39442;SDS011;25147;52.142;9.960;2023-04-03T15:00:52;3.53;;;1.08;;
39442;SDS011;25147;52.142;9.960;2023-04-03T15:03:21;3.08;;;1.30;;
39442;SDS011;25147;52.142;9.960;2023-04-03T15:05:49;3.23;;;1.40;;
39442;SDS011;25147;52.142;9.960;2023-04-03T15:08:18;4.43;;;1.47;;
39442;SDS011;25147;52.142;9.960;2023-04-03T15:10:50;2.83;;;1.30;;
39442;SDS011;25147;52.142;9.960;2023-04-03T15:13:21;2.30;;;1.10;;
39442;SDS011;25147;52.142;9.960;2023-04-03T15:15:49;1.52;;;1.30;;
39442;SDS011;25147;52.142;9.960;2023-04-03T15:18:20;2.37;;;1.17;;
39442;SDS011;25147;52.142;9.960;2023-04-03T15:20:51;2.20;;;1.10;;
39442;SDS011;25147;52.142;9.960;2023-04-03T15:23:22;1.77;;;1.45;;
39442;SDS011;25147;52.142;9.960;2023-04-03T15:25:52;2.33;;;1.30;;
39442;SDS011;25147;52.142;9.960;2023-04-03T15:28:23;2.17;;;1.25;;
39442;SDS011;25147;52.142;9.960;2023-04-03T15:30:58;2.00;;;1.20;;
39442;SDS011;25147;52.142;9.960;2023-04-03T15:33:27;4.00;;;1.70;;